Time,TemperatureF,DewpointF,PressureIn,WindDirection,WindDirectionDegrees,WindSpeedMPH,WindSpeedGustMPH,Humidity,HourlyPrecipIn,Conditions,Clouds,dailyrainin,SoftwareType,DateUTC
2013-06-06 00:01:00,64.2,63.3,30.05,NE,45,1.6,3.1,97,0.12,,,0.01,pywws,2013-06-06 04:01:00,
2013-06-06 00:03:00,64.2,63.3,30.05,NE,45,1.6,3.1,97,0.12,,,0.01,pywws,2013-06-06 04:03:00,
2013-06-06 00:09:00,64.2,63.3,30.05,South,180,0.7,1.6,97,0.13,,,0.02,pywws,2013-06-06 04:09:00,
2013-06-06 00:11:00,64.2,63.3,30.05,SSE,158,0.0,1.6,97,0.13,,,0.02,pywws,2013-06-06 04:11:00,
2013-06-06 00:13:00,64.2,63.3,30.05,West,270,1.6,3.1,97,0.13,,,0.02,pywws,2013-06-06 04:13:00,
2013-06-06 00:19:00,64.4,64.1,30.04,SE,135,0.0,0.7,99,0.13,,,0.02,pywws,2013-06-06 04:19:00,
2013-06-06 00:25:00,64.2,63.3,30.04,East,90,0.7,0.7,97,0.13,,,0.02,pywws,2013-06-06 04:25:00,
2013-06-06 00:30:00,64.2,63.3,30.04,SE,135,2.2,3.8,97,0.12,,,0.02,pywws,2013-06-06 04:30:00,
2013-06-06 00:36:00,64.4,64.1,30.03,SW,225,2.2,3.1,99,0.09,,,0.02,pywws,2013-06-06 04:36:00,
2013-06-06 00:41:00,64.4,64.1,30.03,NE,45,0.7,3.1,99,0.05,,,0.02,pywws,2013-06-06 04:41:00,
2013-06-06 00:47:00,64.4,64.1,30.03,East,90,0.7,2.2,99,0.04,,,0.02,pywws,2013-06-06 04:47:00,
2013-06-06 00:53:00,64.4,64.1,30.03,East,90,2.2,4.5,99,0.02,,,0.02,pywws,2013-06-06 04:53:00,
2013-06-06 00:58:00,64.4,64.1,30.02,ESE,112,2.2,3.8,99,0.02,,,0.02,pywws,2013-06-06 04:58:00,
2013-06-06 01:04:00,64.2,63.3,30.02,ESE,112,1.6,3.1,97,0.01,,,0.02,pywws,2013-06-06 05:04:00,
2013-06-06 01:09:00,64.2,63.3,30.01,East,90,2.2,3.8,97,0.01,,,0.02,pywws,2013-06-06 05:09:00,
2013-06-06 01:15:00,64.2,63.3,30.02,South,180,1.6,3.1,97,0.00,,,0.02,pywws,2013-06-06 05:15:00,
2013-06-06 01:21:00,64.2,63.3,30.01,South,180,1.6,3.1,97,0.00,,,0.02,pywws,2013-06-06 05:21:00,
2013-06-06 01:27:00,64.2,63.3,30.01,SE,135,0.7,1.6,97,0.00,,,0.02,pywws,2013-06-06 05:27:00,
2013-06-06 01:33:00,64.2,63.3,30.01,SW,225,0.0,0.7,97,0.00,,,0.02,pywws,2013-06-06 05:33:00,
2013-06-06 01:38:00,64.2,63.3,30.01,South,180,0.0,0.7,97,0.00,,,0.02,pywws,2013-06-06 05:38:00,
2013-06-06 01:44:00,64.2,63.3,30.01,SW,225,1.6,2.2,97,0.00,,,0.02,pywws,2013-06-06 05:44:00,
2013-06-06 01:49:00,64.4,64.1,30.01,SW,225,0.7,2.2,99,0.00,,,0.02,pywws,2013-06-06 05:49:00,
2013-06-06 01:55:00,64.4,64.1,30.00,SW,225,0.7,2.2,99,0.00,,,0.02,pywws,2013-06-06 05:55:00,
2013-06-06 02:01:00,64.4,64.1,30.01,South,180,0.0,0.0,99,0.00,,,0.02,pywws,2013-06-06 06:01:00,
2013-06-06 02:06:00,64.4,64.1,30.00,South,180,0.0,0.0,99,0.00,,,0.02,pywws,2013-06-06 06:06:00,
2013-06-06 02:12:00,64.4,64.1,30.00,SE,135,0.0,1.6,99,0.00,,,0.02,pywws,2013-06-06 06:12:00,
2013-06-06 02:17:00,64.4,64.1,30.00,NE,45,0.0,0.0,99,0.00,,,0.02,pywws,2013-06-06 06:17:00,
2013-06-06 02:23:00,64.6,64.3,30.00,SW,225,0.0,0.7,99,0.00,,,0.02,pywws,2013-06-06 06:23:00,
2013-06-06 02:29:00,64.6,64.3,30.00,West,270,0.0,0.0,99,0.00,,,0.02,pywws,2013-06-06 06:29:00,
2013-06-06 02:34:00,64.6,64.3,30.00,SW,225,0.7,1.6,99,0.00,,,0.02,pywws,2013-06-06 06:34:00,
2013-06-06 02:40:00,64.6,64.3,30.00,NE,45,0.0,0.7,99,0.00,,,0.02,pywws,2013-06-06 06:40:00,
2013-06-06 02:45:00,64.6,64.3,29.99,SE,135,0.7,1.6,99,0.00,,,0.02,pywws,2013-06-06 06:45:00,
2013-06-06 02:51:00,64.6,64.3,29.99,SW,225,0.0,0.7,99,0.01,,,0.04,pywws,2013-06-06 06:51:00,
2013-06-06 02:57:00,64.6,64.3,29.99,East,90,0.7,1.6,99,0.01,,,0.04,pywws,2013-06-06 06:57:00,
2013-06-06 03:02:00,64.6,64.3,29.99,East,90,1.6,3.1,99,0.01,,,0.04,pywws,2013-06-06 07:02:00,
2013-06-06 03:08:00,64.6,64.3,29.98,SE,135,1.6,3.8,99,0.01,,,0.04,pywws,2013-06-06 07:08:00,
2013-06-06 03:13:00,64.6,64.3,29.99,South,180,0.7,2.2,99,0.01,,,0.04,pywws,2013-06-06 07:13:00,
2013-06-06 03:19:00,64.8,64.5,29.99,South,180,0.7,1.6,99,0.01,,,0.04,pywws,2013-06-06 07:19:00,
2013-06-06 03:25:00,64.8,64.5,29.98,East,90,3.1,4.5,99,0.01,,,0.04,pywws,2013-06-06 07:25:00,
2013-06-06 03:30:00,64.8,64.5,29.98,East,90,1.6,2.2,99,0.01,,,0.04,pywws,2013-06-06 07:30:00,
2013-06-06 03:36:00,64.9,64.7,29.98,East,90,2.2,4.5,99,0.01,,,0.04,pywws,2013-06-06 07:36:00,
2013-06-06 03:41:00,64.9,64.7,29.98,NE,45,0.7,1.6,99,0.01,,,0.04,pywws,2013-06-06 07:41:00,
2013-06-06 03:47:00,64.9,64.7,29.98,West,270,1.6,3.1,99,0.00,,,0.04,pywws,2013-06-06 07:47:00,
2013-06-06 03:53:00,64.9,64.7,29.98,NE,45,2.2,3.8,99,0.00,,,0.04,pywws,2013-06-06 07:53:00,
2013-06-06 03:58:00,64.9,64.7,29.98,SE,135,2.2,4.5,99,0.00,,,0.04,pywws,2013-06-06 07:58:00,
2013-06-06 04:05:00,64.9,64.7,29.97,East,90,3.1,6.0,99,0.00,,,0.04,pywws,2013-06-06 08:05:00,
2013-06-06 04:11:00,64.8,64.5,29.97,WNW,292,1.6,2.2,99,0.00,,,0.04,pywws,2013-06-06 08:11:00,
2013-06-06 04:17:00,64.8,64.5,29.97,SE,135,3.1,5.4,99,0.00,,,0.04,pywws,2013-06-06 08:17:00,
2013-06-06 04:22:00,64.8,64.5,29.97,ESE,112,2.2,6.0,99,0.00,,,0.04,pywws,2013-06-06 08:22:00,
2013-06-06 04:28:00,64.8,64.5,29.97,East,90,3.1,6.0,99,0.00,,,0.04,pywws,2013-06-06 08:28:00,
2013-06-06 04:33:00,64.8,64.5,29.97,South,180,1.6,3.1,99,0.00,,,0.04,pywws,2013-06-06 08:33:00,
2013-06-06 04:39:00,64.8,64.5,29.97,NE,45,3.1,4.5,99,0.00,,,0.04,pywws,2013-06-06 08:39:00,
2013-06-06 04:45:00,64.8,64.5,29.97,NE,45,3.8,5.4,99,0.00,,,0.04,pywws,2013-06-06 08:45:00,
2013-06-06 04:50:00,64.8,64.5,29.97,SW,225,0.7,2.2,99,0.00,,,0.04,pywws,2013-06-06 08:50:00,
2013-06-06 04:56:00,64.8,64.5,29.97,SE,135,2.2,4.5,99,0.00,,,0.04,pywws,2013-06-06 08:56:00,
2013-06-06 05:01:00,64.8,64.5,29.97,SE,135,3.8,5.4,99,0.00,,,0.04,pywws,2013-06-06 09:01:00,
2013-06-06 05:07:00,64.6,64.3,29.96,East,90,1.6,3.1,99,0.00,,,0.04,pywws,2013-06-06 09:07:00,
2013-06-06 05:13:00,64.6,64.3,29.96,East,90,0.7,1.6,99,0.00,,,0.04,pywws,2013-06-06 09:13:00,
2013-06-06 05:18:00,64.6,64.3,29.97,East,90,1.6,3.1,99,0.00,,,0.04,pywws,2013-06-06 09:18:00,
2013-06-06 05:24:00,64.4,64.1,29.97,East,90,3.1,4.5,99,0.00,,,0.04,pywws,2013-06-06 09:24:00,
2013-06-06 05:29:00,64.2,63.3,29.96,ESE,112,1.6,2.2,97,0.00,,,0.04,pywws,2013-06-06 09:29:00,
2013-06-06 05:35:00,64.2,63.3,29.97,North,0,2.2,3.8,97,0.00,,,0.04,pywws,2013-06-06 09:35:00,
2013-06-06 05:41:00,64.2,63.3,29.97,East,90,1.6,3.1,97,0.00,,,0.04,pywws,2013-06-06 09:41:00,
2013-06-06 05:47:00,64.2,63.3,29.97,NE,45,1.6,2.2,97,0.00,,,0.04,pywws,2013-06-06 09:47:00,
2013-06-06 05:53:00,64.2,63.3,29.97,SE,135,0.7,2.2,97,0.00,,,0.04,pywws,2013-06-06 09:53:00,
2013-06-06 05:58:00,64.0,63.2,29.97,North,0,0.0,0.7,97,0.00,,,0.04,pywws,2013-06-06 09:58:00,
2013-06-06 06:04:00,64.0,63.2,29.96,East,90,1.6,3.1,97,0.00,,,0.04,pywws,2013-06-06 10:04:00,
2013-06-06 06:09:00,64.0,63.2,29.96,NE,45,0.0,2.2,97,0.00,,,0.04,pywws,2013-06-06 10:09:00,
2013-06-06 06:15:00,63.9,63.0,29.96,NE,45,1.6,3.1,97,0.00,,,0.04,pywws,2013-06-06 10:15:00,
2013-06-06 06:21:00,63.9,63.0,29.96,NE,45,0.0,0.0,97,0.00,,,0.04,pywws,2013-06-06 10:21:00,
2013-06-06 06:26:00,64.0,63.2,29.96,North,0,0.7,2.2,97,0.00,,,0.04,pywws,2013-06-06 10:26:00,
2013-06-06 06:32:00,64.0,63.2,29.96,SE,135,0.7,2.2,97,0.00,,,0.04,pywws,2013-06-06 10:32:00,
2013-06-06 06:38:00,64.0,63.2,29.96,NE,45,0.7,2.2,97,0.00,,,0.04,pywws,2013-06-06 10:38:00,
2013-06-06 06:44:00,64.2,63.3,29.96,NE,45,0.0,1.6,97,0.00,,,0.04,pywws,2013-06-06 10:44:00,
2013-06-06 06:49:00,64.2,63.3,29.96,SE,135,0.7,2.2,97,0.00,,,0.04,pywws,2013-06-06 10:49:00,
2013-06-06 06:55:00,64.2,63.3,29.96,NE,45,1.6,2.2,97,0.00,,,0.04,pywws,2013-06-06 10:55:00,
2013-06-06 07:01:00,64.2,63.3,29.96,SE,135,0.0,0.7,97,0.00,,,0.04,pywws,2013-06-06 11:01:00,
2013-06-06 07:06:00,64.6,64.3,29.96,NE,45,0.0,0.0,99,0.00,,,0.04,pywws,2013-06-06 11:06:00,
2013-06-06 07:13:00,64.6,64.3,29.97,SE,135,0.7,1.6,99,0.00,,,0.04,pywws,2013-06-06 11:13:00,
2013-06-06 07:18:00,64.8,64.5,29.97,NE,45,0.7,1.6,99,0.00,,,0.04,pywws,2013-06-06 11:18:00,
2013-06-06 07:24:00,64.9,64.7,29.96,South,180,0.7,2.2,99,0.00,,,0.04,pywws,2013-06-06 11:24:00,
2013-06-06 07:29:00,65.1,64.8,29.96,South,180,0.7,1.6,99,0.00,,,0.04,pywws,2013-06-06 11:29:00,
2013-06-06 07:43:00,65.7,65.4,29.97,South,180,2.2,3.1,99,0.00,,,0.04,pywws,2013-06-06 11:43:00,
2013-06-06 07:49:00,66.0,65.7,29.96,NE,45,0.7,2.2,99,0.00,,,0.04,pywws,2013-06-06 11:49:00,
2013-06-06 07:54:00,65.8,65.6,29.96,East,90,2.2,4.5,99,0.00,,,0.04,pywws,2013-06-06 11:54:00,
2013-06-06 08:00:00,66.0,65.7,29.97,North,0,0.7,3.8,99,0.00,,,0.04,pywws,2013-06-06 12:00:00,
2013-06-06 08:05:00,66.2,65.6,29.96,East,90,2.2,3.8,98,0.00,,,0.04,pywws,2013-06-06 12:05:00,
2013-06-06 08:11:00,66.7,65.9,29.96,SE,135,2.2,5.4,97,0.00,,,0.04,pywws,2013-06-06 12:11:00,
2013-06-06 08:17:00,67.1,66.2,29.96,NE,45,3.1,6.9,97,0.00,,,0.04,pywws,2013-06-06 12:17:00,
2013-06-06 08:22:00,67.3,66.1,29.96,SE,135,1.6,3.1,96,0.00,,,0.04,pywws,2013-06-06 12:22:00,
2013-06-06 08:28:00,67.5,66.0,29.96,SW,225,1.6,3.1,95,0.00,,,0.04,pywws,2013-06-06 12:28:00,
2013-06-06 08:33:00,67.6,65.8,29.96,East,90,1.6,2.2,94,0.00,,,0.04,pywws,2013-06-06 12:33:00,
2013-06-06 08:39:00,67.8,66.0,29.96,NE,45,0.7,1.6,94,0.00,,,0.04,pywws,2013-06-06 12:39:00,
2013-06-06 08:45:00,67.8,65.7,29.96,North,0,3.1,4.5,93,0.00,,,0.04,pywws,2013-06-06 12:45:00,
2013-06-06 08:50:00,67.8,65.4,29.96,SE,135,3.8,5.4,92,0.00,,,0.04,pywws,2013-06-06 12:50:00,
2013-06-06 08:56:00,68.0,65.0,29.96,East,90,3.8,6.0,90,0.00,,,0.04,pywws,2013-06-06 12:56:00,
2013-06-06 09:01:00,68.2,65.1,29.96,South,180,2.2,3.8,90,0.00,,,0.04,pywws,2013-06-06 13:01:00,
2013-06-06 09:07:00,68.4,65.0,29.97,East,90,2.2,4.5,89,0.00,,,0.04,pywws,2013-06-06 13:07:00,
2013-06-06 09:13:00,68.4,64.7,29.96,South,180,1.6,2.2,88,0.00,,,0.04,pywws,2013-06-06 13:13:00,
2013-06-06 09:18:00,68.4,64.7,29.97,NW,315,1.6,2.2,88,0.00,,,0.04,pywws,2013-06-06 13:18:00,
2013-06-06 09:24:00,68.5,64.8,29.97,South,180,0.7,1.6,88,0.00,,,0.04,pywws,2013-06-06 13:24:00,
2013-06-06 09:29:00,68.9,65.2,29.96,NW,315,1.6,3.1,88,0.00,,,0.04,pywws,2013-06-06 13:29:00,
2013-06-06 09:35:00,69.1,65.0,29.96,SE,135,2.2,5.4,87,0.00,,,0.04,pywws,2013-06-06 13:35:00,
2013-06-06 09:41:00,69.3,65.2,29.96,NE,45,0.7,2.2,87,0.00,,,0.04,pywws,2013-06-06 13:41:00,
2013-06-06 09:46:00,69.4,65.4,29.96,NE,45,2.2,3.8,87,0.00,,,0.04,pywws,2013-06-06 13:46:00,
2013-06-06 09:52:00,70.0,65.6,29.96,East,90,2.2,3.8,86,0.00,,,0.04,pywws,2013-06-06 13:52:00,
2013-06-06 09:57:00,70.7,65.6,29.96,ESE,112,0.7,1.6,84,0.00,,,0.04,pywws,2013-06-06 13:57:00,
2013-06-06 10:03:00,71.8,66.0,29.96,WSW,248,2.2,3.8,82,0.00,,,0.04,pywws,2013-06-06 14:03:00,
2013-06-06 10:09:00,73.0,66.9,29.95,NE,45,1.6,2.2,81,0.00,,,0.04,pywws,2013-06-06 14:09:00,
2013-06-06 10:14:00,73.9,65.9,29.96,South,180,1.6,3.1,76,0.00,,,0.04,pywws,2013-06-06 14:14:00,
2013-06-06 10:20:00,74.7,66.6,29.95,West,270,2.2,4.5,76,0.00,,,0.04,pywws,2013-06-06 14:20:00,
2013-06-06 10:25:00,75.7,66.8,29.95,NE,45,2.2,3.1,74,0.00,,,0.04,pywws,2013-06-06 14:25:00,
2013-06-06 10:32:00,76.8,66.7,29.95,South,180,0.7,2.2,71,0.00,,,0.04,pywws,2013-06-06 14:32:00,
2013-06-06 10:37:00,77.4,66.0,29.95,SW,225,1.6,2.2,68,0.00,,,0.04,pywws,2013-06-06 14:37:00,
2013-06-06 10:43:00,78.4,67.0,29.95,NE,45,1.6,3.8,68,0.00,,,0.04,pywws,2013-06-06 14:43:00,
2013-06-06 10:49:00,77.7,65.4,29.95,NE,45,4.5,5.4,66,0.00,,,0.04,pywws,2013-06-06 14:49:00,
2013-06-06 10:54:00,77.0,65.2,29.95,SE,135,1.6,3.1,67,0.00,,,0.04,pywws,2013-06-06 14:54:00,
2013-06-06 11:00:00,79.3,67.0,29.95,SE,135,3.1,5.4,66,0.00,,,0.04,pywws,2013-06-06 15:00:00,
2013-06-06 11:05:00,80.2,67.4,29.95,East,90,0.7,2.2,65,0.00,,,0.04,pywws,2013-06-06 15:05:00,
2013-06-06 11:11:00,79.7,65.5,29.95,South,180,2.2,4.5,62,0.00,,,0.04,pywws,2013-06-06 15:11:00,
2013-06-06 11:17:00,78.6,66.3,29.96,SW,225,0.7,1.6,66,0.00,,,0.04,pywws,2013-06-06 15:17:00,
2013-06-06 11:22:00,79.0,65.3,29.96,NE,45,1.6,2.2,63,0.00,,,0.04,pywws,2013-06-06 15:22:00,
2013-06-06 11:28:00,80.6,66.4,29.95,East,90,2.2,4.5,62,0.00,,,0.04,pywws,2013-06-06 15:28:00,
2013-06-06 11:33:00,80.6,65.9,29.96,NE,45,0.0,0.7,61,0.00,,,0.04,pywws,2013-06-06 15:33:00,
2013-06-06 11:39:00,79.5,65.8,29.96,North,0,2.2,3.1,63,0.00,,,0.04,pywws,2013-06-06 15:39:00,
2013-06-06 11:44:00,79.3,66.1,29.96,NE,45,1.6,3.8,64,0.00,,,0.04,pywws,2013-06-06 15:44:00,
2013-06-06 11:50:00,80.8,66.5,29.96,East,90,3.1,6.0,62,0.00,,,0.04,pywws,2013-06-06 15:50:00,
2013-06-06 11:56:00,80.8,66.5,29.96,North,0,0.7,1.6,62,0.00,,,0.04,pywws,2013-06-06 15:56:00,
2013-06-06 12:01:00,80.1,66.3,29.96,East,90,1.6,2.2,63,0.00,,,0.04,pywws,2013-06-06 16:01:00,
2013-06-06 12:07:00,81.0,66.7,29.95,South,180,1.6,3.1,62,0.00,,,0.04,pywws,2013-06-06 16:07:00,
2013-06-06 12:12:00,80.6,65.9,29.96,East,90,2.2,3.8,61,0.00,,,0.04,pywws,2013-06-06 16:12:00,
2013-06-06 12:18:00,80.4,66.2,29.96,South,180,2.2,3.8,62,0.00,,,0.04,pywws,2013-06-06 16:18:00,
2013-06-06 12:24:00,78.4,65.2,29.96,ESE,112,2.2,5.4,64,0.00,,,0.04,pywws,2013-06-06 16:24:00,
2013-06-06 12:29:00,77.7,65.4,29.96,North,0,0.7,2.2,66,0.00,,,0.04,pywws,2013-06-06 16:29:00,
2013-06-06 12:35:00,77.9,65.6,29.96,NE,45,0.7,2.2,66,0.00,,,0.04,pywws,2013-06-06 16:35:00,
2013-06-06 12:40:00,79.0,66.2,29.95,South,180,0.7,1.6,65,0.00,,,0.04,pywws,2013-06-06 16:40:00,
2013-06-06 12:46:00,79.2,65.9,29.95,East,90,0.7,2.2,64,0.00,,,0.04,pywws,2013-06-06 16:46:00,
2013-06-06 12:52:00,79.7,66.9,29.94,South,180,1.6,2.2,65,0.00,,,0.04,pywws,2013-06-06 16:52:00,
2013-06-06 12:57:00,79.5,65.8,29.94,SE,135,0.7,1.6,63,0.00,,,0.04,pywws,2013-06-06 16:57:00,
2013-06-06 13:03:00,80.2,66.5,29.94,SE,135,0.7,1.6,63,0.00,,,0.04,pywws,2013-06-06 17:03:00,
2013-06-06 13:08:00,81.3,66.1,29.94,SW,225,2.2,3.8,60,0.00,,,0.04,pywws,2013-06-06 17:08:00,
2013-06-06 13:14:00,80.8,66.1,29.93,NE,45,0.7,1.6,61,0.00,,,0.04,pywws,2013-06-06 17:14:00,
2013-06-06 13:20:00,82.0,66.8,29.93,SE,135,1.6,2.2,60,0.00,,,0.04,pywws,2013-06-06 17:20:00,
2013-06-06 13:25:00,82.8,65.9,29.93,NW,315,2.2,5.4,57,0.00,,,0.04,pywws,2013-06-06 17:25:00,
2013-06-06 13:31:00,82.8,65.4,29.93,East,90,1.6,3.1,56,0.00,,,0.04,pywws,2013-06-06 17:31:00,
2013-06-06 13:37:00,83.5,66.1,29.92,NNE,22,1.6,3.1,56,0.00,,,0.04,pywws,2013-06-06 17:37:00,
2013-06-06 13:42:00,84.0,66.6,29.92,NE,45,3.8,6.9,56,0.00,,,0.04,pywws,2013-06-06 17:42:00,
2013-06-06 13:48:00,83.1,65.3,29.91,NW,315,1.6,2.2,55,0.00,,,0.04,pywws,2013-06-06 17:48:00,
2013-06-06 13:53:00,83.1,65.8,29.92,East,90,2.2,3.8,56,0.00,,,0.04,pywws,2013-06-06 17:53:00,
2013-06-06 13:59:00,83.3,65.9,29.92,SW,225,1.6,3.1,56,0.00,,,0.04,pywws,2013-06-06 17:59:00,
2013-06-06 14:05:00,83.3,65.9,29.91,SW,225,1.6,3.1,56,0.00,,,0.04,pywws,2013-06-06 18:05:00,
2013-06-06 14:11:00,83.3,65.9,29.91,NE,45,2.2,3.8,56,0.00,,,0.04,pywws,2013-06-06 18:11:00,
2013-06-06 14:17:00,83.5,67.6,29.91,ENE,68,3.1,5.4,59,0.00,,,0.04,pywws,2013-06-06 18:17:00,
2013-06-06 14:22:00,84.6,67.1,29.91,SE,135,3.8,9.2,56,0.00,,,0.04,pywws,2013-06-06 18:22:00,
2013-06-06 14:28:00,85.5,66.9,29.91,SE,135,3.8,6.0,54,0.00,,,0.04,pywws,2013-06-06 18:28:00,
2013-06-06 14:33:00,84.9,65.8,29.91,South,180,3.1,6.9,53,0.00,,,0.04,pywws,2013-06-06 18:33:00,
2013-06-06 14:39:00,84.9,66.9,29.90,NE,45,2.2,3.8,55,0.00,,,0.04,pywws,2013-06-06 18:39:00,
2013-06-06 14:44:00,84.4,65.3,29.90,SE,135,1.6,3.8,53,0.00,,,0.04,pywws,2013-06-06 18:44:00,
2013-06-06 14:50:00,84.9,65.8,29.89,East,90,4.5,7.6,53,0.00,,,0.04,pywws,2013-06-06 18:50:00,
2013-06-06 14:56:00,84.4,65.3,29.90,ESE,112,3.1,5.4,53,0.00,,,0.04,pywws,2013-06-06 18:56:00,
2013-06-06 15:01:00,84.4,65.3,29.90,SE,135,3.1,4.5,53,0.00,,,0.04,pywws,2013-06-06 19:01:00,
2013-06-06 15:07:00,83.8,66.4,29.90,East,90,1.6,3.1,56,0.00,,,0.04,pywws,2013-06-06 19:07:00,
2013-06-06 15:12:00,82.8,65.9,29.90,NE,45,4.5,6.9,57,0.00,,,0.04,pywws,2013-06-06 19:12:00,
2013-06-06 15:18:00,81.1,66.4,29.89,East,90,4.5,6.9,61,0.00,,,0.04,pywws,2013-06-06 19:18:00,
2013-06-06 15:24:00,80.2,66.0,29.90,East,90,3.1,6.0,62,0.00,,,0.04,pywws,2013-06-06 19:24:00,
2013-06-06 15:29:00,79.3,65.6,29.89,SE,135,2.2,3.1,63,0.00,,,0.04,pywws,2013-06-06 19:29:00,
2013-06-06 15:35:00,79.2,65.9,29.89,SW,225,3.8,7.6,64,0.00,,,0.04,pywws,2013-06-06 19:35:00,
2013-06-06 15:37:00,78.8,65.6,29.89,NE,45,2.2,3.1,64,0.00,,,0.04,pywws,2013-06-06 19:37:00,
2013-06-06 15:43:00,77.9,66.0,29.89,South,180,2.2,3.8,67,0.00,,,0.04,pywws,2013-06-06 19:43:00,
2013-06-06 15:48:00,77.7,66.3,29.90,NE,45,3.1,6.9,68,0.00,,,0.04,pywws,2013-06-06 19:48:00,
2013-06-06 15:54:00,77.0,66.4,29.90,SW,225,3.8,9.2,70,0.00,,,0.04,pywws,2013-06-06 19:54:00,
2013-06-06 16:01:00,75.9,67.4,29.89,SE,135,3.8,6.0,75,0.00,,,0.04,pywws,2013-06-06 20:01:00,
2013-06-06 16:07:00,74.5,67.9,29.90,SE,135,2.2,4.5,80,0.01,,,0.05,pywws,2013-06-06 20:07:00,
2013-06-06 16:12:00,73.9,67.7,29.89,SE,135,2.2,3.8,81,0.01,,,0.05,pywws,2013-06-06 20:12:00,
2013-06-06 16:18:00,74.1,69.0,29.89,NE,45,0.7,1.6,84,0.01,,,0.05,pywws,2013-06-06 20:18:00,
2013-06-06 16:24:00,74.5,69.3,29.88,NE,45,0.7,1.6,84,0.01,,,0.05,pywws,2013-06-06 20:24:00,
2013-06-06 16:29:00,75.2,68.6,29.88,SE,135,1.6,3.1,80,0.01,,,0.05,pywws,2013-06-06 20:29:00,
2013-06-06 16:35:00,75.9,68.9,29.88,NE,45,2.2,3.8,79,0.01,,,0.05,pywws,2013-06-06 20:35:00,
2013-06-06 16:40:00,76.1,68.4,29.88,South,180,4.5,6.0,77,0.01,,,0.05,pywws,2013-06-06 20:40:00,
2013-06-06 16:46:00,75.7,67.6,29.88,SE,135,0.7,1.6,76,0.01,,,0.05,pywws,2013-06-06 20:46:00,
2013-06-06 16:52:00,75.4,66.1,29.88,South,180,2.2,5.4,73,0.01,,,0.05,pywws,2013-06-06 20:52:00,
2013-06-06 16:57:00,74.8,66.0,29.88,SW,225,3.8,7.6,74,0.01,,,0.05,pywws,2013-06-06 20:57:00,
2013-06-06 17:03:00,75.0,66.2,29.88,SE,135,3.8,6.9,74,0.01,,,0.05,pywws,2013-06-06 21:03:00,
2013-06-06 17:08:00,75.2,66.3,29.87,NE,45,3.8,6.0,74,0.00,,,0.05,pywws,2013-06-06 21:08:00,
2013-06-06 17:14:00,75.4,66.9,29.87,ESE,112,2.2,4.5,75,0.00,,,0.05,pywws,2013-06-06 21:14:00,
2013-06-06 17:20:00,75.6,66.7,29.87,ESE,112,3.1,4.5,74,0.00,,,0.05,pywws,2013-06-06 21:20:00,
2013-06-06 17:25:00,75.4,66.9,29.87,East,90,2.2,3.8,75,0.00,,,0.05,pywws,2013-06-06 21:25:00,
2013-06-06 17:31:00,75.4,66.5,29.87,North,0,3.1,6.9,74,0.00,,,0.05,pywws,2013-06-06 21:31:00,
2013-06-06 17:37:00,75.4,66.5,29.87,NE,45,3.8,6.9,74,0.00,,,0.05,pywws,2013-06-06 21:37:00,
2013-06-06 17:42:00,75.4,66.5,29.86,East,90,3.8,6.0,74,0.00,,,0.05,pywws,2013-06-06 21:42:00,
2013-06-06 17:48:00,75.4,66.5,29.87,East,90,3.8,7.6,74,0.00,,,0.05,pywws,2013-06-06 21:48:00,
2013-06-06 17:53:00,75.4,66.5,29.87,East,90,2.2,3.8,74,0.00,,,0.05,pywws,2013-06-06 21:53:00,
2013-06-06 17:59:00,75.4,66.5,29.87,South,180,2.2,3.8,74,0.00,,,0.05,pywws,2013-06-06 21:59:00,
2013-06-06 18:04:00,75.6,66.7,29.87,South,180,2.2,3.8,74,0.00,,,0.05,pywws,2013-06-06 22:04:00,
2013-06-06 18:11:00,75.4,66.5,29.87,NE,45,3.8,6.9,74,0.00,,,0.05,pywws,2013-06-06 22:11:00,
2013-06-06 18:16:00,75.4,66.5,29.87,South,180,1.6,2.2,74,0.00,,,0.05,pywws,2013-06-06 22:16:00,
2013-06-06 18:22:00,75.4,66.5,29.86,South,180,0.7,1.6,74,0.00,,,0.05,pywws,2013-06-06 22:22:00,
2013-06-06 18:28:00,75.4,66.5,29.86,South,180,3.1,3.8,74,0.00,,,0.05,pywws,2013-06-06 22:28:00,
2013-06-06 18:33:00,75.2,66.3,29.86,East,90,0.7,2.2,74,0.00,,,0.05,pywws,2013-06-06 22:33:00,
2013-06-06 18:39:00,75.2,65.9,29.86,ENE,68,0.7,1.6,73,0.00,,,0.05,pywws,2013-06-06 22:39:00,
2013-06-06 18:44:00,75.4,66.5,29.86,East,90,3.1,6.0,74,0.00,,,0.05,pywws,2013-06-06 22:44:00,
2013-06-06 18:50:00,75.2,66.7,29.86,East,90,2.2,4.5,75,0.00,,,0.05,pywws,2013-06-06 22:50:00,
2013-06-06 18:56:00,75.0,66.9,29.86,ESE,112,0.7,2.2,76,0.00,,,0.05,pywws,2013-06-06 22:56:00,
2013-06-06 19:01:00,74.8,66.8,29.86,East,90,5.4,7.6,76,0.00,,,0.05,pywws,2013-06-06 23:01:00,
2013-06-06 19:07:00,74.7,66.6,29.86,East,90,0.0,0.7,76,0.00,,,0.05,pywws,2013-06-06 23:07:00,
2013-06-06 19:12:00,74.7,66.6,29.86,East,90,2.2,4.5,76,0.00,,,0.05,pywws,2013-06-06 23:12:00,
2013-06-06 19:18:00,74.5,66.4,29.86,East,90,2.2,3.8,76,0.00,,,0.05,pywws,2013-06-06 23:18:00,
2013-06-06 19:24:00,74.5,66.0,29.87,South,180,3.1,6.9,75,0.00,,,0.05,pywws,2013-06-06 23:24:00,
2013-06-06 19:29:00,74.3,65.8,29.87,SE,135,3.8,6.0,75,0.00,,,0.05,pywws,2013-06-06 23:29:00,
2013-06-06 19:35:00,74.1,66.1,29.86,SW,225,0.7,1.6,76,0.00,,,0.05,pywws,2013-06-06 23:35:00,
2013-06-06 19:40:00,73.9,66.3,29.87,North,0,0.7,1.6,77,0.00,,,0.05,pywws,2013-06-06 23:40:00,
2013-06-06 19:46:00,73.9,66.3,29.87,SE,135,2.2,3.8,77,0.00,,,0.05,pywws,2013-06-06 23:46:00,
2013-06-06 19:52:00,73.8,66.1,29.86,SE,135,1.6,2.2,77,0.00,,,0.05,pywws,2013-06-06 23:52:00,
2013-06-06 19:57:00,73.6,65.9,29.87,NE,45,2.2,3.8,77,0.00,,,0.05,pywws,2013-06-06 23:57:00,
2013-06-06 20:03:00,73.2,65.6,29.86,East,90,1.6,3.1,77,0.00,,,0.05,pywws,2013-06-07 00:03:00,
2013-06-06 20:08:00,72.9,65.2,29.86,North,0,1.6,3.8,77,0.00,,,0.05,pywws,2013-06-07 00:08:00,
2013-06-06 20:14:00,72.7,65.4,29.86,SW,225,1.6,3.1,78,0.00,,,0.05,pywws,2013-06-07 00:14:00,
2013-06-06 20:20:00,72.5,65.2,29.86,South,180,0.7,1.6,78,0.00,,,0.05,pywws,2013-06-07 00:20:00,
2013-06-06 20:25:00,72.3,65.1,29.87,East,90,1.6,3.8,78,0.00,,,0.05,pywws,2013-06-07 00:25:00,
2013-06-06 20:31:00,72.1,64.9,29.87,East,90,1.6,2.2,78,0.00,,,0.05,pywws,2013-06-07 00:31:00,
2013-06-06 20:36:00,71.8,64.5,29.87,NE,45,0.0,1.6,78,0.00,,,0.05,pywws,2013-06-07 00:36:00,
2013-06-06 20:42:00,71.6,64.7,29.87,SE,135,0.7,1.6,79,0.00,,,0.05,pywws,2013-06-07 00:42:00,
2013-06-06 20:48:00,71.4,65.6,29.87,East,90,0.7,2.2,82,0.00,,,0.05,pywws,2013-06-07 00:48:00,
2013-06-06 20:53:00,71.2,65.5,29.87,SE,135,1.6,2.2,82,0.00,,,0.05,pywws,2013-06-07 00:53:00,
2013-06-06 20:59:00,71.1,65.6,29.87,NE,45,0.0,0.7,83,0.00,,,0.05,pywws,2013-06-07 00:59:00,
2013-06-06 21:04:00,70.9,65.5,29.87,SW,225,0.7,2.2,83,0.00,,,0.05,pywws,2013-06-07 01:04:00,
2013-06-06 21:10:00,70.5,65.4,29.87,NE,45,0.7,1.6,84,0.00,,,0.05,pywws,2013-06-07 01:10:00,
2013-06-06 21:16:00,70.5,65.4,29.87,NE,45,0.7,1.6,84,0.00,,,0.05,pywws,2013-06-07 01:16:00,
2013-06-06 21:21:00,70.5,65.8,29.87,East,90,0.0,0.7,85,0.00,,,0.05,pywws,2013-06-07 01:21:00,
2013-06-06 21:27:00,70.3,65.6,29.87,SE,135,1.6,3.1,85,0.00,,,0.05,pywws,2013-06-07 01:27:00,
2013-06-06 21:32:00,70.2,65.4,29.87,East,90,1.6,3.1,85,0.00,,,0.05,pywws,2013-06-07 01:32:00,
2013-06-06 21:38:00,70.0,65.6,29.87,South,180,2.2,3.8,86,0.00,,,0.05,pywws,2013-06-07 01:38:00,
2013-06-06 21:44:00,70.0,65.6,29.87,East,90,3.1,4.5,86,0.00,,,0.05,pywws,2013-06-07 01:44:00,
2013-06-06 21:49:00,69.8,65.4,29.87,East,90,2.2,4.5,86,0.00,,,0.05,pywws,2013-06-07 01:49:00,
2013-06-06 21:55:00,69.8,65.4,29.87,South,180,0.7,1.6,86,0.00,,,0.05,pywws,2013-06-07 01:55:00,
2013-06-06 22:00:00,69.6,65.9,29.88,West,270,0.0,1.6,88,0.00,,,0.05,pywws,2013-06-07 02:00:00,
2013-06-06 22:06:00,69.4,65.7,29.88,South,180,0.0,1.6,88,0.00,,,0.05,pywws,2013-06-07 02:06:00,
2013-06-06 22:11:00,69.4,65.7,29.88,SE,135,1.6,3.8,88,0.00,,,0.05,pywws,2013-06-07 02:11:00,
2013-06-06 22:17:00,69.3,65.5,29.88,East,90,0.7,1.6,88,0.00,,,0.05,pywws,2013-06-07 02:17:00,
2013-06-06 22:23:00,69.3,65.5,29.88,NE,45,1.6,3.1,88,0.00,,,0.05,pywws,2013-06-07 02:23:00,
2013-06-06 22:28:00,69.1,65.4,29.87,NE,45,1.6,2.2,88,0.00,,,0.05,pywws,2013-06-07 02:28:00,
2013-06-06 22:35:00,69.1,65.4,29.88,South,180,1.6,3.8,88,0.00,,,0.05,pywws,2013-06-07 02:35:00,
2013-06-06 22:40:00,68.9,65.2,29.88,SE,135,1.6,2.2,88,0.00,,,0.05,pywws,2013-06-07 02:40:00,
2013-06-06 22:46:00,68.9,65.2,29.88,North,0,2.2,3.8,88,0.00,,,0.05,pywws,2013-06-07 02:46:00,
2013-06-06 22:52:00,68.9,65.2,29.88,South,180,3.8,6.0,88,0.00,,,0.05,pywws,2013-06-07 02:52:00,
2013-06-06 22:57:00,68.9,65.2,29.88,NE,45,2.2,4.5,88,0.00,,,0.05,pywws,2013-06-07 02:57:00,
2013-06-06 23:03:00,68.7,65.0,29.88,SE,135,3.1,5.4,88,0.00,,,0.05,pywws,2013-06-07 03:03:00,
2013-06-06 23:08:00,68.7,65.0,29.88,East,90,1.6,3.8,88,0.00,,,0.05,pywws,2013-06-07 03:08:00,
2013-06-06 23:14:00,68.7,65.0,29.88,East,90,2.2,3.8,88,0.00,,,0.05,pywws,2013-06-07 03:14:00,
2013-06-06 23:20:00,68.7,65.0,29.88,East,90,2.2,3.1,88,0.00,,,0.05,pywws,2013-06-07 03:20:00,
2013-06-06 23:25:00,68.5,64.8,29.88,East,90,3.1,6.0,88,0.00,,,0.05,pywws,2013-06-07 03:25:00,
2013-06-06 23:31:00,68.5,64.8,29.88,SE,135,1.6,3.1,88,0.00,,,0.05,pywws,2013-06-07 03:31:00,
2013-06-06 23:36:00,68.5,64.8,29.88,East,90,2.2,3.8,88,0.00,,,0.05,pywws,2013-06-07 03:36:00,
2013-06-06 23:42:00,68.4,64.7,29.88,East,90,2.2,3.1,88,0.00,,,0.05,pywws,2013-06-07 03:42:00,
2013-06-06 23:48:00,68.4,65.0,29.88,East,90,2.2,4.5,89,0.00,,,0.05,pywws,2013-06-07 03:48:00,
2013-06-06 23:53:00,68.2,64.8,29.88,NE,45,2.2,4.5,89,0.00,,,0.05,pywws,2013-06-07 03:53:00,
2013-06-06 23:59:00,68.2,64.8,29.88,SE,135,1.6,3.8,89,0.00,,,0.05,pywws,2013-06-07 03:59:00,